createdAt,value
2018-11-01T00:01:06.582Z,101374.84
2018-11-01T00:04:12.435Z,101371.41
2018-11-01T00:07:17.883Z,101359.88
2018-11-01T00:10:24.944Z,101360.47
2018-11-01T00:13:30.491Z,101354.00
2018-11-01T00:16:38.194Z,101354.56
2018-11-01T00:19:43.229Z,101354.63
2018-11-01T00:22:48.697Z,101356.52
2018-11-01T00:25:54.071Z,101356.91
2018-11-01T00:29:01.037Z,101360.55
2018-11-01T00:32:06.552Z,101360.20
2018-11-01T00:35:12.434Z,101352.95
2018-11-01T00:38:17.961Z,101352.71
2018-11-01T00:41:23.260Z,101345.85
2018-11-01T00:44:30.286Z,101345.05
2018-11-01T00:47:35.715Z,101347.64
2018-11-01T00:50:41.105Z,101361.04
2018-11-01T00:53:48.464Z,101356.35
2018-11-01T00:56:53.425Z,101353.27
2018-11-01T00:59:58.880Z,101351.10
2018-11-01T01:03:05.627Z,101358.52
2018-11-01T01:06:11.003Z,101352.57
2018-11-01T01:09:16.601Z,101354.81
2018-11-01T01:12:22.180Z,101354.84
2018-11-01T01:15:29.163Z,101350.78
2018-11-01T01:18:34.177Z,101357.15
2018-11-01T01:21:39.472Z,101350.29
2018-11-01T01:24:46.451Z,101355.02
2018-11-01T01:27:51.752Z,101353.20
2018-11-01T01:30:57.039Z,101351.48
2018-11-01T01:34:02.446Z,101349.84
2018-11-01T01:37:08.778Z,101348.61
2018-11-01T01:40:13.993Z,101343.01
2018-11-01T01:43:23.812Z,101349.06
2018-11-01T01:46:29.498Z,101353.47
2018-11-01T01:49:35.291Z,101353.89
2018-11-01T01:52:41.074Z,101352.24
2018-11-01T01:55:46.559Z,101343.17
2018-11-01T01:58:52.081Z,101342.76
2018-11-01T02:01:57.448Z,101338.87
2018-11-01T02:05:03.002Z,101335.80
2018-11-01T02:08:09.286Z,101334.98
2018-11-01T02:11:14.778Z,101338.91
2018-11-01T02:14:20.397Z,101327.31
2018-11-01T02:17:25.708Z,101329.55
2018-11-01T02:20:30.624Z,101331.66
2018-11-01T02:23:47.698Z,101326.09
2018-11-01T02:26:54.834Z,101321.68
2018-11-01T02:30:11.831Z,101329.73
2018-11-01T02:33:21.358Z,101317.46
2018-11-01T02:36:47.303Z,101317.78
2018-11-01T02:40:03.279Z,101317.61
2018-11-01T02:46:23.100Z,101301.03
2018-11-01T02:49:28.180Z,101295.59
2018-11-01T02:52:35.904Z,101294.66
2018-11-01T02:55:45.605Z,101282.48
2018-11-01T02:58:58.477Z,101290.08
2018-11-01T03:02:03.057Z,101282.88
2018-11-01T03:05:08.457Z,101289.84
2018-11-01T03:08:17.927Z,101284.03
2018-11-01T03:11:23.727Z,101279.62
2018-11-01T03:14:28.549Z,101273.81
2018-11-01T03:17:33.817Z,101276.89
2018-11-01T03:20:38.825Z,101280.04
2018-11-01T03:23:44.254Z,101280.36
2018-11-01T03:26:50.340Z,101273.11
2018-11-01T03:29:55.866Z,101276.79
2018-11-01T03:33:01.004Z,101272.91
2018-11-01T03:36:06.099Z,101282.78
2018-11-01T03:39:12.811Z,101277.95
2018-11-01T03:42:17.874Z,101277.59
2018-11-01T03:45:23.585Z,101275.75
2018-11-01T03:48:28.882Z,101273.09
2018-11-01T03:51:34.098Z,101261.09
2018-11-01T03:54:39.382Z,101261.02
2018-11-01T03:57:44.478Z,101249.72
2018-11-01T04:00:51.063Z,101243.16
2018-11-01T04:03:56.977Z,101243.47
2018-11-01T04:07:02.673Z,101240.75
2018-11-01T04:10:08.689Z,101244.03
2018-11-01T04:13:14.865Z,101257.56
2018-11-01T04:16:19.383Z,101248.88
2018-11-01T04:19:24.461Z,101246.30
2018-11-01T04:22:31.147Z,101254.52
2018-11-01T04:25:36.538Z,101257.94
2018-11-01T04:28:41.546Z,101260.52
2018-11-01T04:31:48.925Z,101257.77
2018-11-01T04:34:57.953Z,101261.47
2018-11-01T04:38:03.502Z,101257.94
2018-11-01T04:41:08.959Z,101244.17
2018-11-01T04:44:14.419Z,101232.25
2018-11-01T04:47:19.913Z,101230.89
2018-11-01T04:50:25.101Z,101221.34
2018-11-01T04:53:30.632Z,101193.53
2018-11-01T04:56:35.259Z,101172.22
2018-11-01T04:59:40.321Z,101180.86
2018-11-01T05:02:45.591Z,101188.59
2018-11-01T05:05:50.726Z,101188.95
2018-11-01T05:08:55.646Z,101202.34
2018-11-01T05:12:00.477Z,101201.82
2018-11-01T05:15:06.652Z,101201.78
2018-11-01T05:18:13.117Z,101201.69
2018-11-01T05:21:25.849Z,101191.97
2018-11-01T05:24:30.110Z,101187.70
2018-11-01T05:27:35.614Z,101175.80
2018-11-01T05:30:40.695Z,101172.90
2018-11-01T05:33:45.892Z,101178.78
2018-11-01T05:36:51.136Z,101180.39
2018-11-01T05:39:56.270Z,101188.22
2018-11-01T05:43:01.478Z,101187.17
2018-11-01T05:46:06.528Z,101187.81
2018-11-01T05:49:11.837Z,101173.23
2018-11-01T05:52:16.910Z,101168.64
2018-11-01T05:55:22.073Z,101184.10
2018-11-01T05:58:27.204Z,101189.07
2018-11-01T06:01:36.108Z,101192.64
2018-11-01T06:04:40.554Z,101195.81
2018-11-01T06:07:53.578Z,101197.66
2018-11-01T06:10:58.102Z,101199.48
2018-11-01T06:14:03.010Z,101195.31
2018-11-01T06:17:09.038Z,101187.72
2018-11-01T06:20:15.204Z,101185.39
2018-11-01T06:23:20.163Z,101183.36
2018-11-01T06:26:26.507Z,101174.66
2018-11-01T06:29:37.113Z,101191.81
2018-11-01T06:32:46.901Z,101186.95
2018-11-01T06:35:53.607Z,101183.36
2018-11-01T06:39:00.424Z,101182.84
2018-11-01T06:42:08.499Z,101189.16
2018-11-01T06:45:13.047Z,101184.17
2018-11-01T06:48:19.319Z,101188.06
2018-11-01T06:51:24.715Z,101180.36
2018-11-01T06:54:29.235Z,101185.27
2018-11-01T06:57:34.448Z,101178.95
2018-11-01T07:00:39.047Z,101178.18
2018-11-01T07:03:44.140Z,101185.52
2018-11-01T07:06:48.892Z,101186.47
2018-11-01T07:09:55.051Z,101185.11
2018-11-01T07:13:00.580Z,101180.50
2018-11-01T07:16:06.534Z,101173.77
2018-11-01T07:19:11.712Z,101185.66
2018-11-01T07:22:16.955Z,101182.59
2018-11-01T07:25:22.358Z,101180.67
2018-11-01T07:28:27.199Z,101174.44
2018-11-01T07:31:31.949Z,101171.48
2018-11-01T07:34:42.231Z,101163.22
2018-11-01T07:37:47.683Z,101167.23
2018-11-01T07:40:52.537Z,101167.32
2018-11-01T07:43:57.039Z,101166.56
2018-11-01T07:47:01.844Z,101159.21
2018-11-01T07:50:08.556Z,101153.47
2018-11-01T07:53:14.297Z,101149.22
2018-11-01T07:56:19.913Z,101139.36
2018-11-01T07:59:27.194Z,101132.59
2018-11-01T08:02:32.362Z,101133.16
2018-11-01T08:05:38.999Z,101133.61
2018-11-01T08:08:44.367Z,101137.16
2018-11-01T08:11:49.836Z,101141.56
2018-11-01T08:14:56.224Z,101140.88
2018-11-01T08:18:01.280Z,101141.84
2018-11-01T08:21:06.761Z,101148.48
2018-11-01T08:24:14.853Z,101148.20
2018-11-01T08:27:21.132Z,101147.55
2018-11-01T08:30:26.295Z,101143.28
2018-11-01T08:33:31.729Z,101137.88
2018-11-01T08:36:36.864Z,101133.75
2018-11-01T08:39:41.734Z,101137.94
2018-11-01T08:42:46.348Z,101128.41
2018-11-01T08:45:51.635Z,101125.63
2018-11-01T08:48:55.988Z,101124.20
2018-11-01T08:52:00.380Z,101133.09
2018-11-01T08:55:04.957Z,101138.31
2018-11-01T08:58:09.253Z,101149.70
2018-11-01T09:01:14.079Z,101158.42
2018-11-01T09:04:18.951Z,101166.07
2018-11-01T09:07:23.722Z,101152.04
2018-11-01T09:10:28.769Z,101139.80
2018-11-01T09:13:33.080Z,101131.47
2018-11-01T09:16:38.183Z,101133.75
2018-11-01T09:19:43.540Z,101121.30
2018-11-01T09:22:48.074Z,101107.97
2018-11-01T09:25:52.824Z,101105.92
2018-11-01T09:28:57.450Z,101082.17
2018-11-01T09:32:09.598Z,101073.17
2018-11-01T09:35:14.201Z,101074.59
2018-11-01T09:38:19.984Z,101073.05
2018-11-01T09:41:25.015Z,101075.17
2018-11-01T09:44:29.878Z,101079.22
2018-11-01T09:47:35.838Z,101082.17
2018-11-01T09:50:41.446Z,101081.39
2018-11-01T09:53:46.466Z,101069.93
2018-11-01T09:56:51.536Z,101074.33
2018-11-01T09:59:56.510Z,101066.52
2018-11-01T10:03:01.234Z,101062.84
2018-11-01T10:06:06.282Z,101055.66
2018-11-01T10:09:11.139Z,101054.91
2018-11-01T10:12:16.440Z,101057.64
2018-11-01T10:15:22.734Z,101055.61
2018-11-01T10:18:27.370Z,101059.12
2018-11-01T10:21:31.325Z,101064.42
2018-11-01T10:24:38.257Z,101060.98
2018-11-01T10:27:47.704Z,101055.30
2018-11-01T10:31:01.053Z,101052.77
2018-11-01T10:34:05.957Z,101055.38
2018-11-01T10:37:10.300Z,101051.78
2018-11-01T10:40:17.871Z,101047.88
2018-11-01T10:43:24.518Z,101055.64
2018-11-01T10:46:29.637Z,101047.70
2018-11-01T10:49:41.218Z,101049.79
2018-11-01T10:52:45.617Z,101051.14
2018-11-01T10:55:50.013Z,101051.95
2018-11-01T10:58:54.474Z,101043.67
2018-11-01T11:02:05.357Z,101050.27
2018-11-01T11:08:23.096Z,101056.86
2018-11-01T11:11:31.040Z,101050.87
2018-11-01T11:14:37.295Z,101051.00
2018-11-01T11:17:42.807Z,101046.03
2018-11-01T11:20:47.380Z,101047.58
2018-11-01T11:23:52.301Z,101044.40
2018-11-01T11:26:56.679Z,101026.25
2018-11-01T11:30:01.970Z,101020.73
2018-11-01T11:33:06.522Z,101014.28
2018-11-01T11:36:11.227Z,101008.61
2018-11-01T11:39:17.266Z,101004.23
2018-11-01T11:42:24.621Z,100997.51
2018-11-01T11:45:29.201Z,100993.78
2018-11-01T11:48:33.813Z,100987.92
2018-11-01T11:51:38.371Z,100973.44
2018-11-01T11:54:43.185Z,100972.81
2018-11-01T11:57:49.155Z,100958.33
2018-11-01T12:00:54.818Z,100960.86
2018-11-01T12:07:16.060Z,100948.78
2018-11-01T12:10:20.664Z,100946.11
2018-11-01T12:13:32.371Z,100943.18
2018-11-01T12:16:38.610Z,100946.10
2018-11-01T12:19:43.581Z,100942.59
2018-11-01T12:22:48.290Z,100949.89
2018-11-01T12:25:53.860Z,100941.17
2018-11-01T12:28:59.379Z,100939.72
2018-11-01T12:32:04.812Z,100940.66
2018-11-01T12:35:10.144Z,100940.62
2018-11-01T12:38:14.860Z,100934.55
2018-11-01T12:41:19.776Z,100929.66
2018-11-01T12:44:25.644Z,100927.83
2018-11-01T12:47:30.636Z,100928.92
2018-11-01T12:50:35.937Z,100924.50
2018-11-01T12:53:41.372Z,100921.29
2018-11-01T12:56:46.270Z,100914.36
2018-11-01T12:59:51.557Z,100906.50
2018-11-01T13:02:55.912Z,100909.16
2018-11-01T13:06:00.196Z,100894.92
2018-11-01T13:09:07.856Z,100902.55
2018-11-01T13:12:13.883Z,100908.10
2018-11-01T13:15:18.691Z,100901.42
2018-11-01T13:18:23.083Z,100910.53
2018-11-01T13:21:29.084Z,100904.45
2018-11-01T13:24:34.016Z,100905.70
2018-11-01T13:27:38.895Z,100903.02
2018-11-01T13:30:43.170Z,100899.93
2018-11-01T13:33:47.705Z,100903.70
2018-11-01T13:36:53.052Z,100907.55
2018-11-01T13:39:59.218Z,100910.48
2018-11-01T13:43:04.365Z,100898.74
2018-11-01T13:46:08.909Z,100896.58
2018-11-01T13:49:13.706Z,100893.14
2018-11-01T13:52:20.091Z,100895.13
2018-11-01T13:55:24.966Z,100889.06
2018-11-01T13:58:29.357Z,100888.53
2018-11-01T14:01:33.849Z,100892.91
2018-11-01T14:04:38.386Z,100880.20
2018-11-01T14:07:45.584Z,100867.16
2018-11-01T14:10:50.681Z,100869.61
2018-11-01T14:13:55.770Z,100860.13
2018-11-01T14:17:00.906Z,100860.95
2018-11-01T14:20:06.500Z,100850.50
2018-11-01T14:23:11.250Z,100852.19
2018-11-01T14:26:16.284Z,100850.35
2018-11-01T14:29:21.280Z,100852.94
2018-11-01T14:32:27.571Z,100845.15
2018-11-01T14:35:32.381Z,100840.34
2018-11-01T14:38:37.134Z,100836.39
2018-11-01T14:41:41.999Z,100832.07
2018-11-01T14:44:46.727Z,100826.39
2018-11-01T14:47:51.517Z,100803.00
2018-11-01T14:50:55.937Z,100805.27
2018-11-01T14:54:01.577Z,100793.11
2018-11-01T14:57:05.967Z,100789.49
2018-11-01T15:00:10.670Z,100789.55
2018-11-01T15:03:15.605Z,100786.61
2018-11-01T15:06:20.959Z,100785.64
2018-11-01T15:09:25.299Z,100774.44
2018-11-01T15:12:29.869Z,100767.45
2018-11-01T15:15:35.260Z,100769.63
2018-11-01T15:18:42.197Z,100765.34
2018-11-01T15:21:47.858Z,100754.80
2018-11-01T15:24:53.353Z,100750.48
2018-11-01T15:27:58.393Z,100745.39
2018-11-01T15:31:03.334Z,100754.86
2018-11-01T15:34:08.397Z,100751.39
2018-11-01T15:37:13.413Z,100753.56
2018-11-01T15:40:18.627Z,100754.42
2018-11-01T15:43:23.029Z,100761.36
2018-11-01T15:46:27.823Z,100757.16
2018-11-01T15:49:32.847Z,100753.56
2018-11-01T15:52:37.971Z,100740.23
2018-11-01T15:55:43.333Z,100740.14
2018-11-01T15:58:50.010Z,100734.12
2018-11-01T16:01:55.290Z,100737.67
2018-11-01T16:05:00.988Z,100740.67
2018-11-01T16:08:11.171Z,100747.59
2018-11-01T16:11:15.891Z,100744.95
2018-11-01T16:14:21.555Z,100726.81
2018-11-01T16:17:29.092Z,100725.00
2018-11-01T16:20:35.597Z,100714.13
2018-11-01T16:23:40.738Z,100716.24
2018-11-01T16:26:46.666Z,100717.97
2018-11-01T16:29:51.191Z,100715.33
2018-11-01T16:32:55.905Z,100717.02
2018-11-01T16:36:00.242Z,100717.06
2018-11-01T16:39:08.269Z,100723.64
2018-11-01T16:42:13.213Z,100713.64
2018-11-01T16:45:18.028Z,100707.28
2018-11-01T16:48:23.615Z,100706.42
2018-11-01T16:51:28.908Z,100710.89
2018-11-01T16:54:33.951Z,100708.80
2018-11-01T16:57:39.243Z,100714.91
2018-11-01T17:00:45.415Z,100706.69
2018-11-01T17:03:50.997Z,100706.69
2018-11-01T17:06:55.921Z,100710.59
2018-11-01T17:10:01.446Z,100703.36
2018-11-01T17:13:05.867Z,100701.23
2018-11-01T17:16:10.455Z,100703.36
2018-11-01T17:19:17.489Z,100706.34
2018-11-01T17:22:23.444Z,100699.45
2018-11-01T17:25:28.370Z,100698.11
2018-11-01T17:28:33.414Z,100691.62
2018-11-01T17:31:38.085Z,100698.16
2018-11-01T17:34:43.710Z,100691.10
2018-11-01T17:37:48.377Z,100710.23
2018-11-01T17:40:53.315Z,100709.29
2018-11-01T17:43:57.946Z,100699.84
2018-11-01T17:47:04.253Z,100708.42
2018-11-01T17:50:11.347Z,100703.70
2018-11-01T17:53:15.859Z,100701.15
2018-11-01T17:56:20.153Z,100700.20
2018-11-01T17:59:24.571Z,100696.73
2018-11-01T18:02:29.066Z,100693.22
2018-11-01T18:05:33.550Z,100684.56
2018-11-01T18:08:39.041Z,100677.98
2018-11-01T18:11:43.769Z,100672.39
2018-11-01T18:14:49.661Z,100669.32
2018-11-01T18:17:55.285Z,100673.60
2018-11-01T18:20:59.615Z,100678.80
2018-11-01T18:24:04.562Z,100662.44
2018-11-01T18:27:10.100Z,100667.67
2018-11-01T18:30:15.864Z,100671.52
2018-11-01T18:33:20.264Z,100672.78
2018-11-01T18:36:25.167Z,100673.61
2018-11-01T18:39:31.560Z,100676.68
2018-11-01T18:42:36.826Z,100679.62
2018-11-01T18:45:42.061Z,100677.28
2018-11-01T18:48:46.749Z,100683.78
2018-11-01T18:51:54.518Z,100674.20
2018-11-01T18:55:01.157Z,100673.73
2018-11-01T18:58:06.126Z,100673.73
2018-11-01T19:01:11.109Z,100674.98
2018-11-01T19:04:16.443Z,100670.57
2018-11-01T19:07:22.584Z,100652.47
2018-11-01T19:10:28.978Z,100660.57
2018-11-01T19:13:35.252Z,100656.15
2018-11-01T19:16:40.088Z,100652.27
2018-11-01T19:19:44.964Z,100653.55
2018-11-01T19:22:51.507Z,100651.78
2018-11-01T19:25:56.438Z,100643.56
2018-11-01T19:29:02.566Z,100630.53
2018-11-01T19:32:08.344Z,100641.73
2018-11-01T19:35:13.667Z,100630.83
2018-11-01T19:38:18.601Z,100634.67
2018-11-01T19:41:23.758Z,100628.53
2018-11-01T19:44:28.725Z,100629.77
2018-11-01T19:47:34.047Z,100619.73
2018-11-01T19:50:38.800Z,100618.83
2018-11-01T19:53:44.970Z,100638.28
2018-11-01T19:56:49.872Z,100653.80
2018-11-01T19:59:54.735Z,100647.70
2018-11-01T20:02:59.926Z,100644.72
2018-11-01T20:06:05.002Z,100647.31
2018-11-01T20:09:10.496Z,100642.52
2018-11-01T20:12:15.760Z,100642.51
2018-11-01T20:15:20.900Z,100646.89
2018-11-01T20:18:25.464Z,100634.73
2018-11-01T20:21:30.473Z,100631.27
2018-11-01T20:24:35.775Z,100621.75
2018-11-01T20:27:41.163Z,100618.30
2018-11-01T20:30:45.993Z,100626.47
2018-11-01T20:33:50.651Z,100629.01
2018-11-01T20:36:55.576Z,100616.84
2018-11-01T20:40:01.419Z,100614.58
2018-11-01T20:43:05.808Z,100610.16
2018-11-01T20:46:11.796Z,100608.00
2018-11-01T20:49:16.266Z,100604.49
2018-11-01T20:52:21.000Z,100612.27
2018-11-01T20:55:26.218Z,100613.09
2018-11-01T20:58:30.921Z,100622.17
2018-11-01T21:01:36.960Z,100620.00
2018-11-01T21:04:41.918Z,100623.03
2018-11-01T21:07:47.056Z,100618.22
2018-11-01T21:10:52.281Z,100623.80
2018-11-01T21:13:57.526Z,100634.55
2018-11-01T21:17:03.162Z,100633.73
2018-11-01T21:20:08.849Z,100634.55
2018-11-01T21:23:14.188Z,100622.40
2018-11-01T21:26:20.611Z,100614.95
2018-11-01T21:29:27.113Z,100606.69
2018-11-01T21:32:34.519Z,100611.44
2018-11-01T21:35:39.594Z,100608.36
2018-11-01T21:38:45.107Z,100612.67
2018-11-01T21:41:50.483Z,100621.22
2018-11-01T21:44:55.487Z,100622.51
2018-11-01T21:48:00.647Z,100625.48
2018-11-01T21:51:06.448Z,100619.00
2018-11-01T21:54:11.983Z,100622.07
2018-11-01T21:57:17.163Z,100626.84
2018-11-01T22:00:22.516Z,100630.23
2018-11-01T22:03:27.803Z,100627.17
2018-11-01T22:06:33.242Z,100641.52
2018-11-01T22:09:38.759Z,100638.51
2018-11-01T22:12:44.345Z,100634.63
2018-11-01T22:15:49.387Z,100638.45
2018-11-01T22:18:54.940Z,100641.05
2018-11-01T22:22:00.999Z,100637.52
2018-11-01T22:25:09.167Z,100643.95
2018-11-01T22:28:14.910Z,100649.95
2018-11-01T22:31:19.110Z,100654.27
2018-11-01T22:34:23.733Z,100644.75
2018-11-01T22:37:28.561Z,100639.52
2018-11-01T22:40:33.829Z,100636.88
2018-11-01T22:43:38.992Z,100632.02
2018-11-01T22:46:43.367Z,100628.45
2018-11-01T22:49:52.380Z,100629.69
2018-11-01T22:52:57.270Z,100630.81
2018-11-01T22:56:02.412Z,100632.41
2018-11-01T22:59:07.648Z,100636.94
2018-11-01T23:02:12.962Z,100645.94
2018-11-01T23:05:18.240Z,100633.80
2018-11-01T23:08:23.452Z,100646.37
2018-11-01T23:11:28.524Z,100646.87
2018-11-01T23:14:33.476Z,100650.37
2018-11-01T23:17:39.898Z,100667.72
2018-11-01T23:20:45.345Z,100675.54
2018-11-01T23:23:50.384Z,100680.34
2018-11-01T23:26:56.197Z,100683.02
2018-11-01T23:30:02.209Z,100681.72
2018-11-01T23:33:08.795Z,100686.08
2018-11-01T23:36:12.746Z,100689.98
2018-11-01T23:39:23.178Z,100697.38
2018-11-01T23:42:33.628Z,100686.08
2018-11-01T23:45:44.701Z,100693.86
2018-11-01T23:48:52.818Z,100688.80
2018-11-01T23:52:02.469Z,100687.00
2018-11-01T23:55:07.601Z,100686.09
2018-11-01T23:58:12.759Z,100679.17
